Inzhener Plavinskiy — UBFM — position and weather

sailwx.info

Track history (hours):
 
Tides and Currents Weather Stations Pressure Air Temp Water Temp Dewpoint Dewpoint Depression Visibility Wind Speed Wind Dir Waves Ship Positions

Inzhener Plavinskiy

Last reported at 2018-Jun-21 01:00 UTC. Time now 2018-Jun-21 01:02 UTC.
Position N 55°55' E 012°44'.

Length 156 m; draft 5 m.

Type: Cargo ship. MMSI: 273388730.

Date/timePositionNaut miles runAvg speedWind from/ knotsBaromVisibWave heightAir tempDewpointWater temp
2018-Jun-21 01:00N 55°55' E 012°44'611.3
2018-Jun-21 00:30N 55°49' E 012°43'611.7
2018-Jun-21 00:01N 55°43' E 012°41'612.1
2018-Jun-20 23:30N 55°37' E 012°42'611.1
2018-Jun-20 23:01N 55°32' E 012°43'612.0
2018-Jun-20 22:31N 55°26' E 012°42'612.2
2018-Jun-20 22:00N 55°20' E 012°41'5 9.4
2018-Jun-20 21:30N 55°17' E 012°48'510.5
2018-Jun-20 21:00N 55°15' E 012°56'510.6
2018-Jun-20 20:30N 55°14' E 013°06'611.1
2018-Jun-20 20:00N 55°14' E 013°15'910.8
2018-Jun-20 19:11N 55°14' E 013°31'210.3
2018-Jun-20 19:00N 55°14' E 013°34'710.6
2018-Jun-20 18:21N 55°14' E 013°46'510.6
2018-Jun-20 17:55N 55°14' E 013°54'1110.5
2018-Jun-20 16:52N 55°14' E 014°14'510.2
2018-Jun-20 16:23N 55°16' E 014°21'511.0
2018-Jun-20 15:57N 55°20' E 014°26'510.7
2018-Jun-20 15:30N 55°23' E 014°32'610.1
2018-Jun-20 14:57N 55°26' E 014°40'11610.5
2018-Jun-20 03:49N 55°02' E 018°00'310.3
2018-Jun-20 03:30N 55°01' E 018°05'510.3
2018-Jun-20 02:58N 54°60' E 018°15'510.0
2018-Jun-20 02:30N 54°59' E 018°23'5 9.8
2018-Jun-20 02:00N 54°57' E 018°31'5 9.9
2018-Jun-20 01:30N 54°55' E 018°39'510.0
2018-Jun-20 01:00N 54°53' E 018°46'510.1
2018-Jun-20 00:31N 54°50' E 018°53'510.3
2018-Jun-20 00:00N 54°47' E 019°00'611.2
2018-Jun-19 23:31N 54°41' E 018°58'611.9
2018-Jun-19 23:01N 54°36' E 018°54'612.0
2018-Jun-19 22:31N 54°31' E 018°48'611.6
2018-Jun-19 22:00N 54°27' E 018°41'3 5.4
2018-Jun-19 21:31N 54°24' E 018°41'1 1.8
2018-Jun-19 20:58N 54°23' E 018°40'0 0.0
2018-Jun-19 20:28N 54°23' E 018°40'0 0.0
2018-Jun-19 19:58N 54°23' E 018°40'0 0.0
2018-Jun-19 19:28N 54°23' E 018°40'0 0.0
2018-Jun-19 18:58N 54°23' E 018°40'0 0.0
2018-Jun-19 18:28N 54°23' E 018°40'0 0.0
2018-Jun-19 17:58N 54°23' E 018°40'0 0.0
2018-Jun-19 17:28N 54°23' E 018°40'0 0.0
2018-Jun-19 16:58N 54°23' E 018°40'0 0.0
2018-Jun-19 16:28N 54°23' E 018°40'0 0.0
2018-Jun-19 15:58N 54°23' E 018°40'0 0.0
2018-Jun-19 15:28N 54°23' E 018°40'0 0.0
2018-Jun-19 14:58N 54°23' E 018°40'0 0.0
2018-Jun-19 14:28N 54°23' E 018°40'0 0.0
2018-Jun-19 13:58N 54°23' E 018°40'0 0.0
2018-Jun-19 13:28N 54°23' E 018°40'0 0.0
2018-Jun-19 12:58N 54°23' E 018°40'0 0.0
2018-Jun-19 12:28N 54°23' E 018°40'0 0.0
2018-Jun-19 11:58N 54°23' E 018°40'0 0.0
2018-Jun-19 11:28N 54°23' E 018°40'0 0.0
2018-Jun-19 10:58N 54°23' E 018°40'0 0.0
2018-Jun-19 10:28N 54°23' E 018°40'0 0.0
2018-Jun-19 09:58N 54°23' E 018°40'0 0.0
2018-Jun-19 09:28N 54°23' E 018°40'0 0.0
2018-Jun-19 08:58N 54°23' E 018°40'0 0.0
2018-Jun-19 08:28N 54°23' E 018°40'0 0.0
2018-Jun-19 07:58N 54°23' E 018°40'0 0.0
2018-Jun-19 07:28N 54°23' E 018°40'0 0.0
2018-Jun-19 06:58N 54°23' E 018°40'0 0.0
2018-Jun-19 06:28N 54°23' E 018°40'0 0.0
2018-Jun-19 05:58N 54°23' E 018°40'0 0.0
2018-Jun-19 05:28N 54°23' E 018°40'0 0.0
2018-Jun-19 04:58N 54°23' E 018°40'0 0.0
2018-Jun-19 04:28N 54°23' E 018°40'0 0.0
2018-Jun-19 03:58N 54°23' E 018°40'0 0.0
2018-Jun-19 03:28N 54°23' E 018°40'0 0.0
2018-Jun-19 02:58N 54°23' E 018°40'0 0.0
2018-Jun-19 02:28N 54°23' E 018°40'0 0.0
2018-Jun-19 01:58N 54°23' E 018°40'0 0.0
2018-Jun-19 01:28N 54°23' E 018°40'0 0.0
2018-Jun-19 00:58N 54°23' E 018°40'0 0.0
2018-Jun-19 00:28N 54°23' E 018°40'0 0.0
2018-Jun-18 23:58N 54°23' E 018°40'0 0.0
2018-Jun-18 23:28N 54°23' E 018°40'0 0.0
2018-Jun-18 22:58N 54°23' E 018°40'0 0.0
2018-Jun-18 22:28N 54°23' E 018°40'0 0.0
2018-Jun-18 21:58N 54°23' E 018°40'0 0.0
2018-Jun-18 21:28N 54°23' E 018°40'0 0.0
2018-Jun-18 20:58N 54°23' E 018°40'0 0.0
2018-Jun-18 20:28N 54°23' E 018°40'0 0.0
2018-Jun-18 19:58N 54°23' E 018°40'0 0.0
2018-Jun-18 19:28N 54°23' E 018°40'0 0.0
2018-Jun-18 18:58N 54°23' E 018°40'0 0.0
2018-Jun-18 18:28N 54°23' E 018°40'0 0.0
2018-Jun-18 17:58N 54°23' E 018°40'0 0.0
2018-Jun-18 17:28N 54°23' E 018°40'0 0.0
2018-Jun-18 16:58N 54°23' E 018°40'0 0.0
2018-Jun-18 16:28N 54°23' E 018°40'0 0.0
2018-Jun-18 15:58N 54°23' E 018°40'0 0.0
2018-Jun-18 15:28N 54°23' E 018°40'0 0.0
2018-Jun-18 14:58N 54°23' E 018°40'0 0.0
2018-Jun-18 14:28N 54°23' E 018°40'0 0.0
2018-Jun-18 13:58N 54°23' E 018°40'0 0.0
2018-Jun-18 13:28N 54°23' E 018°40'0 0.0
2018-Jun-18 12:58N 54°23' E 018°40'0 0.0
2018-Jun-18 12:28N 54°23' E 018°40'0 0.0
2018-Jun-18 11:58N 54°23' E 018°40'0 0.0
2018-Jun-18 11:28N 54°23' E 018°40'0 0.0
2018-Jun-18 10:58N 54°23' E 018°40'0 0.0
2018-Jun-18 10:28N 54°23' E 018°40'0 0.0
2018-Jun-18 09:58N 54°23' E 018°40'0 0.0
2018-Jun-18 09:28N 54°23' E 018°40'0 0.0
2018-Jun-18 08:58N 54°23' E 018°40'0 0.0
2018-Jun-18 08:28N 54°23' E 018°40'0 0.0
2018-Jun-18 07:58N 54°23' E 018°40'0 0.0
2018-Jun-18 07:28N 54°23' E 018°40'0 0.0
2018-Jun-18 06:58N 54°23' E 018°40'0 0.0
2018-Jun-18 06:28N 54°23' E 018°40'0 0.0
2018-Jun-18 05:58N 54°23' E 018°40'0 0.0
2018-Jun-18 05:25N 54°23' E 018°40'0 0.0
2018-Jun-18 04:58N 54°23' E 018°40'0 0.0
2018-Jun-18 04:28N 54°23' E 018°40'0 0.7
2018-Jun-18 04:00N 54°24' E 018°40'2 3.3
2018-Jun-18 03:31N 54°25' E 018°39'3 5.8
2018-Jun-18 03:01N 54°28' E 018°42'3 6.7
2018-Jun-18 02:31N 54°30' E 018°45'510.8
2018-Jun-18 02:01N 54°34' E 018°51'611.1
2018-Jun-18 01:31N 54°39' E 018°56'611.5
2018-Jun-18 01:00N 54°45' E 018°59'5 9.2
2018-Jun-18 00:30N 54°49' E 018°55'611.2
2018-Jun-18 00:00N 54°52' E 018°47'611.2
2018-Jun-17 23:30N 54°55' E 018°40'611.0
2018-Jun-17 22:58N 54°57' E 018°30'510.9
2018-Jun-17 22:30N 54°58' E 018°21'610.9
2018-Jun-17 21:59N 54°58' E 018°11'1811.1
2018-Jun-17 20:19N 54°55' E 017°39'411.0
2018-Jun-17 19:59N 54°54' E 017°33'511.0
2018-Jun-17 19:30N 54°53' E 017°24'147 8.8
2018-Jun-17 02:50N 54°45' E 013°09'510.6
2018-Jun-17 02:23N 54°45' E 013°00'510.1
2018-Jun-17 01:55N 54°45' E 012°52'410.2
2018-Jun-17 01:30N 54°45' E 012°45'510.9
2018-Jun-17 01:00N 54°42' E 012°37'611.3
2018-Jun-17 00:30N 54°39' E 012°29'611.6
2018-Jun-17 00:01N 54°36' E 012°21'510.5
2018-Jun-16 23:29N 54°31' E 012°17'611.1
2018-Jun-16 22:59N 54°26' E 012°12'510.0
2018-Jun-16 22:30N 54°25' E 012°04'911.3
2018-Jun-16 21:42N 54°25' E 011°48'311.2
2018-Jun-16 21:27N 54°26' E 011°44'511.2
2018-Jun-16 21:01N 54°28' E 011°36'611.8
2018-Jun-16 20:30N 54°31' E 011°27'611.0
2018-Jun-16 20:01N 54°33' E 011°18'510.8
2018-Jun-16 19:30N 54°35' E 011°10'510.6
2018-Jun-16 19:01N 54°38' E 011°02'510.6
2018-Jun-16 18:30N 54°41' E 010°55'5 9.7
2018-Jun-16 18:01N 54°46' E 010°52'611.4
2018-Jun-16 17:31N 54°51' E 010°52'611.8
2018-Jun-16 17:00N 54°57' E 010°56'611.5
2018-Jun-16 16:30N 55°02' E 011°01'510.9
2018-Jun-16 16:00N 55°07' E 011°02'510.4
2018-Jun-16 15:30N 55°12' E 011°06'12710.0
2018-Jun-16 02:50N 57°18' E 011°30'410.9
2018-Jun-16 02:28N 57°22' E 011°28'511.1
2018-Jun-16 02:01N 57°27' E 011°24'510.6
2018-Jun-16 01:30N 57°31' E 011°18'35510.4
2018-Jun-14 15:26N 53°04' E 004°26'912.6
2018-Jun-14 14:45N 52°57' E 004°19'412.5
2018-Jun-14 14:28N 52°53' E 004°17'2112.0
2018-Jun-14 12:42N 52°37' E 003°54'411.4
2018-Jun-14 12:20N 52°34' E 003°49'411.3
2018-Jun-14 11:59N 52°31' E 003°45'511.0
2018-Jun-14 11:30N 52°28' E 003°39'510.7
2018-Jun-14 11:00N 52°24' E 003°33'510.7
2018-Jun-14 10:30N 52°20' E 003°27'510.2
2018-Jun-14 09:58N 52°16' E 003°21'5 9.2
2018-Jun-14 09:26N 52°12' E 003°16'4 9.5
2018-Jun-14 09:00N 52°09' E 003°11'5 9.8
2018-Jun-14 08:30N 52°06' E 003°05'5 9.8
2018-Jun-14 08:00N 52°02' E 002°59'7 9.9
2018-Jun-14 07:18N 51°57' E 002°52'310.3
2018-Jun-14 06:58N 51°54' E 002°49'510.5
2018-Jun-14 06:30N 51°50' E 002°44'511.0
2018-Jun-14 06:00N 51°46' E 002°38'511.2
2018-Jun-14 05:31N 51°42' E 002°33'611.6
2018-Jun-14 05:01N 51°37' E 002°27'611.7
2018-Jun-14 04:31N 51°33' E 002°20'612.2
2018-Jun-14 04:00N 51°28' E 002°14'612.3
2018-Jun-14 03:31N 51°23' E 002°10'612.5
2018-Jun-14 03:01N 51°17' E 002°06'612.4
2018-Jun-14 02:31N 51°12' E 001°60'713.2
2018-Jun-14 02:01N 51°08' E 001°51'713.7
2018-Jun-14 01:30N 51°04' E 001°43'714.4
2018-Jun-14 01:00N 50°60' E 001°34'714.2
2018-Jun-14 00:30N 50°54' E 001°27'714.3
2018-Jun-14 00:00N 50°47' E 001°23'713.6
2018-Jun-13 23:30N 50°41' E 001°19'713.2
2018-Jun-13 23:00N 50°37' E 001°11'713.0
2018-Jun-13 22:30N 50°32' E 001°04'612.5
2018-Jun-13 22:00N 50°29' E 000°55'612.9
2018-Jun-13 21:30N 50°27' E 000°45'3113.6
2018-Jun-13 19:16N 50°19' W 000°01'313.1
2018-Jun-13 19:00N 50°19' W 000°06'712.9
2018-Jun-13 18:30N 50°17' W 000°16'612.7
2018-Jun-13 18:00N 50°15' W 000°25'612.2
2018-Jun-13 17:30N 50°13' W 000°35'611.6
2018-Jun-13 17:00N 50°12' W 000°43'510.9
2018-Jun-13 16:30N 50°10' W 000°51'510.1
2018-Jun-13 16:00N 50°09' W 000°59'5 9.4
2018-Jun-13 15:30N 50°08' W 001°06'5 8.6
2018-Jun-13 14:57N 50°07' W 001°13'4 8.1
2018-Jun-13 14:30N 50°06' W 001°19'4 7.6
2018-Jun-13 14:01N 50°05' W 001°24'4 7.4
2018-Jun-13 13:30N 50°04' W 001°30'4 7.3
2018-Jun-13 13:00N 50°02' W 001°35'4 7.1
2018-Jun-13 12:30N 50°02' W 001°41'4 7.6
2018-Jun-13 12:00N 50°01' W 001°47'8 8.7
2018-Jun-13 11:08N 49°59' W 001°58'1310.7
2018-Jun-13 09:57N 49°56' W 002°17'611.9
2018-Jun-13 09:27N 49°54' W 002°26'612.2
2018-Jun-13 08:56N 49°52' W 002°35'612.3
2018-Jun-13 08:28N 49°51' W 002°44'612.3
2018-Jun-13 07:58N 49°49' W 002°53'812.9
2018-Jun-13 07:20N 49°45' W 003°04'7312.7
2018-Jun-13 01:34N 49°08' W 004°41'112.1
2018-Jun-13 01:30N 49°07' W 004°42'1911.4
2018-Jun-12 23:50N 48°58' W 005°07'410.7
2018-Jun-12 23:30N 48°56' W 005°12'910.3
2018-Jun-12 22:38N 48°52' W 005°24'4 9.8
2018-Jun-12 22:12N 48°49' W 005°29'3 9.6
2018-Jun-12 21:52N 48°48' W 005°34'  
Track history (hours):
 
Tides and Currents Weather Stations Pressure Air Temp Water Temp Dewpoint Dewpoint Depression Visibility Wind Speed Wind Dir Waves Ship Positions

Inzhener Plavinskiy

Last reported at 2018-Jun-21 01:00 UTC. Time now 2018-Jun-21 01:02 UTC.
Position N 55°55' E 012°44'.

Length 156 m; draft 5 m.

Type: Cargo ship. MMSI: 273388730.

Date/timePositionNaut miles runAvg speedWind from/ knotsBaromVisibWave heightAir tempDewpointWater temp
2018-Jun-21 01:00N 55°55' E 012°44'611.3
2018-Jun-21 00:30N 55°49' E 012°43'611.7
2018-Jun-21 00:01N 55°43' E 012°41'612.1
2018-Jun-20 23:30N 55°37' E 012°42'611.1
2018-Jun-20 23:01N 55°32' E 012°43'612.0
2018-Jun-20 22:31N 55°26' E 012°42'612.2
2018-Jun-20 22:00N 55°20' E 012°41'5 9.4
2018-Jun-20 21:30N 55°17' E 012°48'510.5
2018-Jun-20 21:00N 55°15' E 012°56'510.6
2018-Jun-20 20:30N 55°14' E 013°06'611.1
2018-Jun-20 20:00N 55°14' E 013°15'910.8
2018-Jun-20 19:11N 55°14' E 013°31'210.3
2018-Jun-20 19:00N 55°14' E 013°34'710.6
2018-Jun-20 18:21N 55°14' E 013°46'510.6
2018-Jun-20 17:55N 55°14' E 013°54'1110.5
2018-Jun-20 16:52N 55°14' E 014°14'510.2
2018-Jun-20 16:23N 55°16' E 014°21'511.0
2018-Jun-20 15:57N 55°20' E 014°26'510.7
2018-Jun-20 15:30N 55°23' E 014°32'610.1
2018-Jun-20 14:57N 55°26' E 014°40'11610.5
2018-Jun-20 03:49N 55°02' E 018°00'310.3
2018-Jun-20 03:30N 55°01' E 018°05'510.3
2018-Jun-20 02:58N 54°60' E 018°15'510.0
2018-Jun-20 02:30N 54°59' E 018°23'5 9.8
2018-Jun-20 02:00N 54°57' E 018°31'5 9.9
2018-Jun-20 01:30N 54°55' E 018°39'510.0
2018-Jun-20 01:00N 54°53' E 018°46'510.1
2018-Jun-20 00:31N 54°50' E 018°53'510.3
2018-Jun-20 00:00N 54°47' E 019°00'611.2
2018-Jun-19 23:31N 54°41' E 018°58'611.9
2018-Jun-19 23:01N 54°36' E 018°54'612.0
2018-Jun-19 22:31N 54°31' E 018°48'611.6
2018-Jun-19 22:00N 54°27' E 018°41'3 5.4
2018-Jun-19 21:31N 54°24' E 018°41'1 1.8
2018-Jun-19 20:58N 54°23' E 018°40'0 0.0
2018-Jun-19 20:28N 54°23' E 018°40'0 0.0
2018-Jun-19 19:58N 54°23' E 018°40'0 0.0
2018-Jun-19 19:28N 54°23' E 018°40'0 0.0
2018-Jun-19 18:58N 54°23' E 018°40'0 0.0
2018-Jun-19 18:28N 54°23' E 018°40'0 0.0
2018-Jun-19 17:58N 54°23' E 018°40'0 0.0
2018-Jun-19 17:28N 54°23' E 018°40'0 0.0
2018-Jun-19 16:58N 54°23' E 018°40'0 0.0
2018-Jun-19 16:28N 54°23' E 018°40'0 0.0
2018-Jun-19 15:58N 54°23' E 018°40'0 0.0
2018-Jun-19 15:28N 54°23' E 018°40'0 0.0
2018-Jun-19 14:58N 54°23' E 018°40'0 0.0
2018-Jun-19 14:28N 54°23' E 018°40'0 0.0
2018-Jun-19 13:58N 54°23' E 018°40'0 0.0
2018-Jun-19 13:28N 54°23' E 018°40'0 0.0
2018-Jun-19 12:58N 54°23' E 018°40'0 0.0
2018-Jun-19 12:28N 54°23' E 018°40'0 0.0
2018-Jun-19 11:58N 54°23' E 018°40'0 0.0
2018-Jun-19 11:28N 54°23' E 018°40'0 0.0
2018-Jun-19 10:58N 54°23' E 018°40'0 0.0
2018-Jun-19 10:28N 54°23' E 018°40'0 0.0
2018-Jun-19 09:58N 54°23' E 018°40'0 0.0
2018-Jun-19 09:28N 54°23' E 018°40'0 0.0
2018-Jun-19 08:58N 54°23' E 018°40'0 0.0
2018-Jun-19 08:28N 54°23' E 018°40'0 0.0
2018-Jun-19 07:58N 54°23' E 018°40'0 0.0
2018-Jun-19 07:28N 54°23' E 018°40'0 0.0
2018-Jun-19 06:58N 54°23' E 018°40'0 0.0
2018-Jun-19 06:28N 54°23' E 018°40'0 0.0
2018-Jun-19 05:58N 54°23' E 018°40'0 0.0
2018-Jun-19 05:28N 54°23' E 018°40'0 0.0
2018-Jun-19 04:58N 54°23' E 018°40'0 0.0
2018-Jun-19 04:28N 54°23' E 018°40'0 0.0
2018-Jun-19 03:58N 54°23' E 018°40'0 0.0
2018-Jun-19 03:28N 54°23' E 018°40'0 0.0
2018-Jun-19 02:58N 54°23' E 018°40'0 0.0
2018-Jun-19 02:28N 54°23' E 018°40'0 0.0
2018-Jun-19 01:58N 54°23' E 018°40'0 0.0
2018-Jun-19 01:28N 54°23' E 018°40'0 0.0
2018-Jun-19 00:58N 54°23' E 018°40'0 0.0
2018-Jun-19 00:28N 54°23' E 018°40'0 0.0
2018-Jun-18 23:58N 54°23' E 018°40'0 0.0
2018-Jun-18 23:28N 54°23' E 018°40'0 0.0
2018-Jun-18 22:58N 54°23' E 018°40'0 0.0
2018-Jun-18 22:28N 54°23' E 018°40'0 0.0
2018-Jun-18 21:58N 54°23' E 018°40'0 0.0
2018-Jun-18 21:28N 54°23' E 018°40'0 0.0
2018-Jun-18 20:58N 54°23' E 018°40'0 0.0
2018-Jun-18 20:28N 54°23' E 018°40'0 0.0
2018-Jun-18 19:58N 54°23' E 018°40'0 0.0
2018-Jun-18 19:28N 54°23' E 018°40'0 0.0
2018-Jun-18 18:58N 54°23' E 018°40'0 0.0
2018-Jun-18 18:28N 54°23' E 018°40'0 0.0
2018-Jun-18 17:58N 54°23' E 018°40'0 0.0
2018-Jun-18 17:28N 54°23' E 018°40'0 0.0
2018-Jun-18 16:58N 54°23' E 018°40'0 0.0
2018-Jun-18 16:28N 54°23' E 018°40'0 0.0
2018-Jun-18 15:58N 54°23' E 018°40'0 0.0
2018-Jun-18 15:28N 54°23' E 018°40'0 0.0
2018-Jun-18 14:58N 54°23' E 018°40'0 0.0
2018-Jun-18 14:28N 54°23' E 018°40'0 0.0
2018-Jun-18 13:58N 54°23' E 018°40'0 0.0
2018-Jun-18 13:28N 54°23' E 018°40'0 0.0
2018-Jun-18 12:58N 54°23' E 018°40'0 0.0
2018-Jun-18 12:28N 54°23' E 018°40'0 0.0
2018-Jun-18 11:58N 54°23' E 018°40'0 0.0
2018-Jun-18 11:28N 54°23' E 018°40'0 0.0
2018-Jun-18 10:58N 54°23' E 018°40'0 0.0
2018-Jun-18 10:28N 54°23' E 018°40'0 0.0
2018-Jun-18 09:58N 54°23' E 018°40'0 0.0
2018-Jun-18 09:28N 54°23' E 018°40'0 0.0
2018-Jun-18 08:58N 54°23' E 018°40'0 0.0
2018-Jun-18 08:28N 54°23' E 018°40'0 0.0
2018-Jun-18 07:58N 54°23' E 018°40'0 0.0
2018-Jun-18 07:28N 54°23' E 018°40'0 0.0
2018-Jun-18 06:58N 54°23' E 018°40'0 0.0
2018-Jun-18 06:28N 54°23' E 018°40'0 0.0
2018-Jun-18 05:58N 54°23' E 018°40'0 0.0
2018-Jun-18 05:25N 54°23' E 018°40'0 0.0
2018-Jun-18 04:58N 54°23' E 018°40'0 0.0
2018-Jun-18 04:28N 54°23' E 018°40'0 0.7
2018-Jun-18 04:00N 54°24' E 018°40'2 3.3
2018-Jun-18 03:31N 54°25' E 018°39'3 5.8
2018-Jun-18 03:01N 54°28' E 018°42'3 6.7
2018-Jun-18 02:31N 54°30' E 018°45'510.8
2018-Jun-18 02:01N 54°34' E 018°51'611.1
2018-Jun-18 01:31N 54°39' E 018°56'611.5
2018-Jun-18 01:00N 54°45' E 018°59'5 9.2
2018-Jun-18 00:30N 54°49' E 018°55'611.2
2018-Jun-18 00:00N 54°52' E 018°47'611.2
2018-Jun-17 23:30N 54°55' E 018°40'611.0
2018-Jun-17 22:58N 54°57' E 018°30'510.9
2018-Jun-17 22:30N 54°58' E 018°21'610.9
2018-Jun-17 21:59N 54°58' E 018°11'1811.1
2018-Jun-17 20:19N 54°55' E 017°39'411.0
2018-Jun-17 19:59N 54°54' E 017°33'511.0
2018-Jun-17 19:30N 54°53' E 017°24'147 8.8
2018-Jun-17 02:50N 54°45' E 013°09'510.6
2018-Jun-17 02:23N 54°45' E 013°00'510.1
2018-Jun-17 01:55N 54°45' E 012°52'410.2
2018-Jun-17 01:30N 54°45' E 012°45'510.9
2018-Jun-17 01:00N 54°42' E 012°37'611.3
2018-Jun-17 00:30N 54°39' E 012°29'611.6
2018-Jun-17 00:01N 54°36' E 012°21'510.5
2018-Jun-16 23:29N 54°31' E 012°17'611.1
2018-Jun-16 22:59N 54°26' E 012°12'510.0
2018-Jun-16 22:30N 54°25' E 012°04'911.3
2018-Jun-16 21:42N 54°25' E 011°48'311.2
2018-Jun-16 21:27N 54°26' E 011°44'511.2
2018-Jun-16 21:01N 54°28' E 011°36'611.8
2018-Jun-16 20:30N 54°31' E 011°27'611.0
2018-Jun-16 20:01N 54°33' E 011°18'510.8
2018-Jun-16 19:30N 54°35' E 011°10'510.6
2018-Jun-16 19:01N 54°38' E 011°02'510.6
2018-Jun-16 18:30N 54°41' E 010°55'5 9.7
2018-Jun-16 18:01N 54°46' E 010°52'611.4
2018-Jun-16 17:31N 54°51' E 010°52'611.8
2018-Jun-16 17:00N 54°57' E 010°56'611.5
2018-Jun-16 16:30N 55°02' E 011°01'510.9
2018-Jun-16 16:00N 55°07' E 011°02'510.4
2018-Jun-16 15:30N 55°12' E 011°06'12710.0
2018-Jun-16 02:50N 57°18' E 011°30'410.9
2018-Jun-16 02:28N 57°22' E 011°28'511.1
2018-Jun-16 02:01N 57°27' E 011°24'510.6
2018-Jun-16 01:30N 57°31' E 011°18'35510.4
2018-Jun-14 15:26N 53°04' E 004°26'912.6
2018-Jun-14 14:45N 52°57' E 004°19'412.5
2018-Jun-14 14:28N 52°53' E 004°17'2112.0
2018-Jun-14 12:42N 52°37' E 003°54'411.4
2018-Jun-14 12:20N 52°34' E 003°49'411.3
2018-Jun-14 11:59N 52°31' E 003°45'511.0
2018-Jun-14 11:30N 52°28' E 003°39'510.7
2018-Jun-14 11:00N 52°24' E 003°33'510.7
2018-Jun-14 10:30N 52°20' E 003°27'510.2
2018-Jun-14 09:58N 52°16' E 003°21'5 9.2
2018-Jun-14 09:26N 52°12' E 003°16'4 9.5
2018-Jun-14 09:00N 52°09' E 003°11'5 9.8
2018-Jun-14 08:30N 52°06' E 003°05'5 9.8
2018-Jun-14 08:00N 52°02' E 002°59'7 9.9
2018-Jun-14 07:18N 51°57' E 002°52'310.3
2018-Jun-14 06:58N 51°54' E 002°49'510.5
2018-Jun-14 06:30N 51°50' E 002°44'511.0
2018-Jun-14 06:00N 51°46' E 002°38'511.2
2018-Jun-14 05:31N 51°42' E 002°33'611.6
2018-Jun-14 05:01N 51°37' E 002°27'611.7
2018-Jun-14 04:31N 51°33' E 002°20'612.2
2018-Jun-14 04:00N 51°28' E 002°14'612.3
2018-Jun-14 03:31N 51°23' E 002°10'612.5
2018-Jun-14 03:01N 51°17' E 002°06'612.4
2018-Jun-14 02:31N 51°12' E 001°60'713.2
2018-Jun-14 02:01N 51°08' E 001°51'713.7
2018-Jun-14 01:30N 51°04' E 001°43'714.4
2018-Jun-14 01:00N 50°60' E 001°34'714.2
2018-Jun-14 00:30N 50°54' E 001°27'714.3
2018-Jun-14 00:00N 50°47' E 001°23'713.6
2018-Jun-13 23:30N 50°41' E 001°19'713.2
2018-Jun-13 23:00N 50°37' E 001°11'713.0
2018-Jun-13 22:30N 50°32' E 001°04'612.5
2018-Jun-13 22:00N 50°29' E 000°55'612.9
2018-Jun-13 21:30N 50°27' E 000°45'3113.6
2018-Jun-13 19:16N 50°19' W 000°01'313.1
2018-Jun-13 19:00N 50°19' W 000°06'712.9
2018-Jun-13 18:30N 50°17' W 000°16'612.7
2018-Jun-13 18:00N 50°15' W 000°25'612.2
2018-Jun-13 17:30N 50°13' W 000°35'611.6
2018-Jun-13 17:00N 50°12' W 000°43'510.9
2018-Jun-13 16:30N 50°10' W 000°51'510.1
2018-Jun-13 16:00N 50°09' W 000°59'5 9.4
2018-Jun-13 15:30N 50°08' W 001°06'5 8.6
2018-Jun-13 14:57N 50°07' W 001°13'4 8.1
2018-Jun-13 14:30N 50°06' W 001°19'4 7.6
2018-Jun-13 14:01N 50°05' W 001°24'4 7.4
2018-Jun-13 13:30N 50°04' W 001°30'4 7.3
2018-Jun-13 13:00N 50°02' W 001°35'4 7.1
2018-Jun-13 12:30N 50°02' W 001°41'4 7.6
2018-Jun-13 12:00N 50°01' W 001°47'8 8.7
2018-Jun-13 11:08N 49°59' W 001°58'1310.7
2018-Jun-13 09:57N 49°56' W 002°17'611.9
2018-Jun-13 09:27N 49°54' W 002°26'612.2
2018-Jun-13 08:56N 49°52' W 002°35'612.3
2018-Jun-13 08:28N 49°51' W 002°44'612.3
2018-Jun-13 07:58N 49°49' W 002°53'812.9
2018-Jun-13 07:20N 49°45' W 003°04'7312.7
2018-Jun-13 01:34N 49°08' W 004°41'112.1
2018-Jun-13 01:30N 49°07' W 004°42'1911.4
2018-Jun-12 23:50N 48°58' W 005°07'410.7
2018-Jun-12 23:30N 48°56' W 005°12'910.3
2018-Jun-12 22:38N 48°52' W 005°24'4 9.8
2018-Jun-12 22:12N 48°49' W 005°29'3 9.6
2018-Jun-12 21:52N 48°48' W 005°34'  

Dump ship's entire track history